Time;durP1;ratioP1;P1;durP2;ratioP2;P2;SDS_P1;SDS_P2;PMS_P1;PMS_P2;Temp;Humidity;BMP_temperature;BMP_pressure;BME280_temperature;BME280_humidity;BME280_pressure;Samples;Min_cycle;Max_cycle;Signal;HPM_P1;HPM_P2
2022/09/14 00:00:57;;;;;;;5.12;4.45;;;;;;;10.20;100.00;98698.58;1780067;80;21700;-76
2022/09/14 00:03:23;;;;;;;6.83;4.10;;;;;;;10.23;100.00;98698.44;1780593;80;21551;-76
2022/09/14 00:05:50;;;;;;;5.70;4.33;;;;;;;10.25;100.00;98696.59;1780114;80;21455;-76
2022/09/14 00:08:16;;;;;;;4.83;4.08;;;;;;;10.26;100.00;98693.05;1780253;80;21617;-77
2022/09/14 00:10:44;;;;;;;11.65;4.20;;;;;;;10.28;100.00;98692.51;1780134;80;21523;-77
2022/09/14 00:13:12;;;;;;;6.33;3.98;;;;;;;10.30;100.00;98698.54;1780100;80;21054;-75
2022/09/14 00:15:41;;;;;;;8.68;4.22;;;;;;;10.29;100.00;98690.72;1780706;80;20987;-76
2022/09/14 00:18:09;;;;;;;6.65;3.65;;;;;;;10.29;100.00;98693.35;1780189;80;21562;-76
2022/09/14 00:20:36;;;;;;;8.00;4.15;;;;;;;10.29;100.00;98694.66;1780555;80;21058;-76
2022/09/14 00:23:02;;;;;;;4.50;4.10;;;;;;;10.29;100.00;98692.03;1780055;80;21304;-75
2022/09/14 00:25:29;;;;;;;7.90;4.12;;;;;;;10.27;100.00;98690.82;1780385;80;21023;-76
2022/09/14 00:27:56;;;;;;;7.90;4.12;;;;;;;10.28;100.00;98689.03;1780257;80;21003;-76
2022/09/14 00:30:22;;;;;;;4.42;4.03;;;;;;;10.27;100.00;98689.51;1749672;80;21224;-77
2022/09/14 00:32:50;;;;;;;5.72;4.10;;;;;;;10.28;100.00;98687.25;1780673;80;20988;-76
2022/09/14 00:35:17;;;;;;;10.53;4.25;;;;;;;10.30;100.00;98688.02;1780503;80;21581;-76
2022/09/14 00:37:43;;;;;;;4.40;4.00;;;;;;;10.31;100.00;98687.58;1780553;80;21095;-76
2022/09/14 00:40:11;;;;;;;4.20;3.62;;;;;;;10.32;100.00;98686.67;1779580;80;21071;-76
2022/09/14 00:42:38;;;;;;;5.42;4.12;;;;;;;10.34;100.00;98687.45;1777251;80;21154;-76
2022/09/14 00:45:16;;;;;;;5.55;3.92;;;;;;;10.33;100.00;98690.55;1777251;80;21114;-76
2022/09/14 00:47:42;;;;;;;4.45;3.62;;;;;;;10.33;100.00;98686.60;1776390;80;21387;-77
2022/09/14 00:50:08;;;;;;;4.25;3.50;;;;;;;10.33;100.00;98687.08;1777139;80;21087;-76
2022/09/14 00:52:37;;;;;;;5.80;3.85;;;;;;;10.31;100.00;98683.17;1777359;80;20991;-77
2022/09/14 00:55:09;;;;;;;5.37;4.42;;;;;;;10.31;100.00;98685.80;1777250;80;21137;-75
2022/09/14 00:57:40;;;;;;;4.65;3.83;;;;;;;10.31;100.00;98688.42;1776600;80;21066;-76
2022/09/14 01:00:09;;;;;;;4.55;3.95;;;;;;;10.32;100.00;98687.55;1776737;80;21075;-77
2022/09/14 01:02:35;;;;;;;8.75;4.22;;;;;;;10.33;100.00;98683.97;1749090;80;21007;-76
2022/09/14 01:05:02;;;;;;;4.80;4.40;;;;;;;10.35;100.00;98679.95;1777317;80;21000;-77
2022/09/14 01:07:50;;;;;;;6.95;4.53;;;;;;;10.37;100.00;98678.98;1777144;80;21222;-76
2022/09/14 01:10:49;;;;;;;4.72;4.25;;;;;;;10.39;100.00;98678.44;1776910;80;20999;-76
2022/09/14 01:13:33;;;;;;;6.58;5.37;;;;;;;10.40;100.00;98679.28;1777101;80;21181;-76
2022/09/14 01:16:18;;;;;;;5.63;5.00;;;;;;;10.38;100.00;98671.45;1777234;80;21475;-76
2022/09/14 01:18:50;;;;;;;6.20;5.60;;;;;;;10.38;100.00;98680.66;1777340;80;21329;-76
2022/09/14 01:21:25;;;;;;;5.85;5.33;;;;;;;10.39;100.00;98681.06;1777407;80;21502;-77
2022/09/14 01:24:15;;;;;;;7.37;5.20;;;;;;;10.38;100.00;98681.98;1777133;80;21000;-76
2022/09/14 01:27:22;;;;;;;7.80;4.33;;;;;;;10.38;100.00;98671.93;1776958;80;21581;-76
2022/09/14 01:30:08;;;;;;;6.05;4.65;;;;;;;10.40;100.00;98671.39;1777033;80;21047;-77
2022/09/14 01:32:57;;;;;;;4.45;3.95;;;;;;;10.40;100.00;98673.55;1777451;80;21479;-77
2022/09/14 01:35:31;;;;;;;7.65;4.05;;;;;;;10.40;100.00;98664.34;1777115;80;21844;-76
2022/09/14 01:38:05;;;;;;;4.58;4.17;;;;;;;10.40;100.00;98664.34;1750209;80;21668;-78
2022/09/14 01:40:42;;;;;;;4.53;4.00;;;;;;;10.40;100.00;98673.55;1778548;80;21522;-76
2022/09/14 01:43:17;;;;;;;5.33;3.75;;;;;;;10.39;100.00;98663.97;1780479;80;21775;-77
2022/09/14 01:45:49;;;;;;;4.58;4.12;;;;;;;10.41;100.00;98662.11;1780766;80;21031;-77
2022/09/14 01:48:18;;;;;;;4.78;4.35;;;;;;;10.40;100.00;98663.03;1781100;80;21393;-77
2022/09/14 01:50:49;;;;;;;4.70;4.17;;;;;;;10.41;100.00;98660.80;1780794;80;21079;-77
2022/09/14 01:53:33;;;;;;;5.37;4.10;;;;;;;10.41;100.00;98663.43;1781087;80;21015;-77
2022/09/14 01:56:35;;;;;;;4.72;4.33;;;;;;;10.41;100.00;98666.06;1781147;80;21031;-77
2022/09/14 01:59:15;;;;;;;7.50;4.40;;;;;;;10.41;100.00;98656.02;1781162;80;21048;-77
2022/09/14 02:01:58;;;;;;;12.68;4.75;;;;;;;10.41;100.00;98650.28;1780724;80;21279;-77
2022/09/14 02:04:49;;;;;;;5.85;4.85;;;;;;;10.41;100.00;98647.66;1781213;80;21193;-77
2022/09/14 02:07:15;;;;;;;10.80;5.65;;;;;;;10.44;100.00;98649.73;1780723;80;21225;-77
2022/09/14 02:09:42;;;;;;;6.10;5.35;;;;;;;10.45;100.00;98639.63;1780840;80;21083;-77
2022/09/14 02:12:09;;;;;;;7.80;5.92;;;;;;;10.45;100.00;98644.87;1780616;80;21051;-76
2022/09/14 02:14:35;;;;;;;7.80;5.80;;;;;;;10.46;100.00;98637.39;1780807;80;21186;-77
2022/09/14 02:17:02;;;;;;;6.33;5.53;;;;;;;10.48;100.00;98639.48;1780808;80;21083;-77
2022/09/14 02:19:32;;;;;;;6.62;4.92;;;;;;;10.47;100.00;98635.13;1780666;80;21094;-77
2022/09/14 02:21:59;;;;;;;5.25;4.72;;;;;;;10.47;100.00;98633.34;1780905;80;21016;-77
2022/09/14 02:24:26;;;;;;;8.28;4.50;;;;;;;10.48;100.00;98634.22;1780685;80;21082;-77
2022/09/14 02:26:52;;;;;;;5.60;4.17;;;;;;;10.49;100.00;98634.59;1780930;80;21100;-78
2022/09/14 02:29:19;;;;;;;4.85;4.45;;;;;;;10.50;100.00;98640.25;1780768;80;20999;-77
2022/09/14 02:32:00;;;;;;;5.65;4.22;;;;;;;10.50;100.00;98640.25;1781151;80;21031;-77
2022/09/14 02:35:10;;;;;;;7.45;4.30;;;;;;;10.51;100.00;98644.59;1780567;80;21058;-77
2022/09/14 02:38:08;;;;;;;4.00;3.55;;;;;;;10.50;100.00;98634.52;1780750;80;21125;-77
2022/09/14 02:40:40;;;;;;;6.05;3.70;;;;;;;10.50;100.00;98629.73;1779859;80;21170;-77
2022/09/14 02:43:33;;;;;;;4.55;4.00;;;;;;;10.50;100.00;98629.73;1776823;80;21005;-77
2022/09/14 02:46:33;;;;;;;4.17;3.40;;;;;;;10.49;100.00;98628.02;1777008;80;21032;-77
2022/09/14 02:49:26;;;;;;;3.40;3.12;;;;;;;10.49;100.00;98635.91;1777414;80;21157;-76
2022/09/14 02:52:19;;;;;;;5.30;3.70;;;;;;;10.48;100.00;98622.38;1776162;80;21055;-78
2022/09/14 02:55:09;;;;;;;3.80;3.50;;;;;;;10.47;100.00;98621.98;1777214;80;22741;-76
2022/09/14 02:58:11;;;;;;;5.45;3.40;;;;;;;10.45;100.00;98618.11;1776665;80;21636;-77
2022/09/14 03:00:41;;;;;;;3.75;3.35;;;;;;;10.45;100.00;98618.58;1777203;80;21051;-76
2022/09/14 03:03:09;;;;;;;6.85;3.47;;;;;;;10.46;100.00;98620.30;1777257;80;21332;-77
2022/09/14 03:05:37;;;;;;;7.08;3.30;;;;;;;10.45;100.00;98619.89;1777059;80;21553;-77
2022/09/14 03:08:04;;;;;;;5.85;3.10;;;;;;;10.47;100.00;98621.98;1777142;80;21877;-77
2022/09/14 03:10:31;;;;;;;4.12;3.10;;;;;;;10.48;100.00;98618.44;1776916;80;21059;-76
2022/09/14 03:12:57;;;;;;;6.08;3.40;;;;;;;10.48;100.00;98618.44;1776938;80;21040;-77
2022/09/14 03:15:25;;;;;;;3.30;3.00;;;;;;;10.48;100.00;98623.70;1776884;80;20988;-76
2022/09/14 03:17:52;;;;;;;3.77;3.25;;;;;;;10.45;100.00;98623.38;1777095;80;21153;-76
2022/09/14 03:20:23;;;;;;;3.25;2.98;;;;;;;10.46;100.00;98612.41;1777154;80;21147;-76
2022/09/14 03:22:50;;;;;;;3.45;3.00;;;;;;;10.47;100.00;98617.56;1776891;80;21561;-76
2022/09/14 03:25:18;;;;;;;3.17;2.98;;;;;;;10.47;100.00;98623.30;1777573;80;21522;-77
2022/09/14 03:27:54;;;;;;;3.35;3.05;;;;;;;10.48;100.00;98620.59;1777022;80;21019;-77
2022/09/14 03:30:21;;;;;;;3.58;3.27;;;;;;;10.46;100.00;98617.19;1777109;80;20988;-77
2022/09/14 03:32:48;;;;;;;4.75;3.33;;;;;;;10.46;100.00;98613.72;1777271;80;21019;-76
2022/09/14 03:35:15;;;;;;;2.90;2.62;;;;;;;10.46;100.00;98612.41;1776943;80;20972;-77
2022/09/14 03:37:42;;;;;;;4.05;3.10;;;;;;;10.46;100.00;98617.67;1777120;80;21585;-77
2022/09/14 03:40:10;;;;;;;10.80;3.30;;;;;;;10.44;100.00;98611.16;1776883;80;21099;-77
2022/09/14 03:42:38;;;;;;;3.98;2.70;;;;;;;10.43;100.00;98616.50;1779516;80;21581;-76
2022/09/14 03:45:06;;;;;;;2.95;2.75;;;;;;;10.44;100.00;98619.50;1749413;80;21119;-77
2022/09/14 03:47:33;;;;;;;3.25;3.05;;;;;;;10.41;100.00;98625.30;1754078;80;21086;-77
2022/09/14 03:49:59;;;;;;;3.55;2.80;;;;;;;10.39;100.00;98628.47;1780671;80;21063;-77
2022/09/14 03:52:26;;;;;;;3.52;2.60;;;;;;;10.38;100.00;98617.55;1780086;80;21071;-77
2022/09/14 03:54:52;;;;;;;3.40;3.10;;;;;;;10.40;100.00;98624.90;1780258;80;21098;-77
2022/09/14 03:57:18;;;;;;;3.33;2.83;;;;;;;10.40;100.00;98624.90;1779976;80;21330;-77
2022/09/14 03:59:45;;;;;;;4.05;3.47;;;;;;;10.41;100.00;98631.88;1780318;80;21059;-77
2022/09/14 04:02:12;;;;;;;3.45;3.17;;;;;;;10.41;100.00;98631.03;1779910;80;21000;-77
2022/09/14 04:04:38;;;;;;;3.17;2.92;;;;;;;10.40;100.00;98637.20;1780317;80;21055;-76
2022/09/14 04:07:05;;;;;;;3.25;2.92;;;;;;;10.38;100.00;98618.02;1780391;80;21106;-77
2022/09/14 04:09:32;;;;;;;3.10;2.80;;;;;;;10.41;100.00;98622.67;1780514;80;21233;-78
2022/09/14 04:11:59;;;;;;;6.03;2.80;;;;;;;10.43;100.00;98635.75;1780328;80;22087;-76
2022/09/14 04:14:26;;;;;;;4.95;2.65;;;;;;;10.43;100.00;98641.00;1780349;80;21463;-77
2022/09/14 04:16:52;;;;;;;3.22;2.55;;;;;;;10.43;100.00;98632.27;1780610;80;20987;-76
2022/09/14 04:19:19;;;;;;;8.10;2.80;;;;;;;10.44;100.00;98640.53;1780262;80;21098;-77
2022/09/14 04:21:46;;;;;;;3.35;3.05;;;;;;;10.43;100.00;98641.48;1780297;80;21526;-77
2022/09/14 04:24:12;;;;;;;2.98;2.77;;;;;;;10.41;100.00;98647.66;1780618;80;21193;-77
2022/09/14 04:26:39;;;;;;;6.42;3.17;;;;;;;10.41;100.00;98650.28;1780054;80;21688;-77
2022/09/14 04:29:06;;;;;;;3.00;2.80;;;;;;;10.44;100.00;98657.63;1780203;80;21589;-78
2022/09/14 04:31:33;;;;;;;5.90;3.85;;;;;;;10.45;100.00;98658.03;1780317;80;21462;-77
2022/09/14 04:33:59;;;;;;;4.12;3.70;;;;;;;10.46;100.00;98655.80;1780284;80;22197;-77
2022/09/14 04:36:29;;;;;;;8.13;4.75;;;;;;;10.46;100.00;98654.02;1780076;80;21597;-77
2022/09/14 04:38:58;;;;;;;8.20;4.70;;;;;;;10.48;100.00;98655.26;1780315;80;21067;-77
2022/09/14 04:41:25;;;;;;;6.28;4.37;;;;;;;10.50;100.00;98650.30;1780340;80;21110;-77
2022/09/14 04:43:52;;;;;;;6.15;3.30;;;;;;;10.52;100.00;98643.65;1780473;80;21110;-78
2022/09/14 04:46:22;;;;;;;4.45;4.00;;;;;;;10.55;100.00;98644.82;1780553;80;21236;-77
2022/09/14 04:48:49;;;;;;;3.35;3.15;;;;;;;10.58;100.00;98646.83;1780863;80;21114;-77
2022/09/14 04:51:22;;;;;;;3.40;3.10;;;;;;;10.61;100.00;98639.27;1781287;80;21127;-77
2022/09/14 04:53:51;;;;;;;3.52;2.62;;;;;;;10.63;100.00;98640.52;1780838;80;21592;-77
2022/09/14 04:56:20;;;;;;;6.37;2.77;;;;;;;10.64;100.00;98643.08;1780953;80;21051;-76
2022/09/14 04:58:49;;;;;;;3.67;3.00;;;;;;;10.63;100.00;98646.63;1780870;80;21247;-77
2022/09/14 05:01:19;;;;;;;3.05;2.75;;;;;;;10.62;100.00;98638.33;1780665;80;21043;-77
2022/09/14 05:03:45;;;;;;;5.42;3.33;;;;;;;10.63;100.00;98649.25;1780955;80;21008;-76
2022/09/14 05:06:18;;;;;;;4.10;3.47;;;;;;;10.62;100.00;98647.53;1780777;80;21035;-76
2022/09/14 05:08:45;;;;;;;3.98;3.02;;;;;;;10.62;100.00;98654.11;1780926;80;21102;-77
2022/09/14 05:11:19;;;;;;;3.08;2.80;;;;;;;10.60;100.00;98648.08;1780791;80;21242;-77
2022/09/14 05:13:46;;;;;;;5.80;3.50;;;;;;;10.60;100.00;98650.70;1781405;80;21527;-77
2022/09/14 05:16:20;;;;;;;3.67;3.30;;;;;;;10.57;100.00;98652.17;1780594;80;21114;-78
2022/09/14 05:18:46;;;;;;;3.12;2.92;;;;;;;10.56;100.00;98658.38;1781206;80;21031;-77
2022/09/14 05:21:16;;;;;;;6.15;3.30;;;;;;;10.56;100.00;98659.69;1780909;80;21023;-77
2022/09/14 05:23:42;;;;;;;3.42;3.12;;;;;;;10.61;100.00;98661.63;1781217;80;21112;-77
2022/09/14 05:26:09;;;;;;;7.55;3.17;;;;;;;10.66;100.00;98670.16;1780861;80;21164;-77
2022/09/14 05:28:35;;;;;;;3.75;3.47;;;;;;;10.69;100.00;98666.06;1780836;80;21078;-77
2022/09/14 05:31:11;;;;;;;4.87;3.10;;;;;;;10.72;100.00;98663.73;1781322;80;21087;-77
2022/09/14 05:33:38;;;;;;;3.87;3.17;;;;;;;10.75;100.00;98658.32;1780592;80;21050;-78
2022/09/14 05:36:06;;;;;;;4.17;2.90;;;;;;;10.79;100.00;98659.86;1781034;80;21056;-77
2022/09/14 05:38:35;;;;;;;3.50;2.98;;;;;;;10.83;100.00;98655.33;1780556;80;21070;-77
2022/09/14 05:41:02;;;;;;;4.50;3.17;;;;;;;10.87;100.00;98656.86;1780632;80;21063;-76
2022/09/14 05:43:29;;;;;;;4.83;3.08;;;;;;;10.91;100.00;98658.40;1777076;80;21468;-78
2022/09/14 05:45:55;;;;;;;4.35;3.20;;;;;;;10.88;99.19;98663.84;1777004;80;21476;-77
2022/09/14 05:48:22;;;;;;;3.30;2.87;;;;;;;10.83;98.92;98658.80;1774242;80;21495;-77
2022/09/14 05:50:49;;;;;;;4.03;2.83;;;;;;;10.81;98.60;98654.52;1777183;80;21687;-78
2022/09/14 05:53:15;;;;;;;3.15;2.95;;;;;;;10.80;98.81;98660.73;1735902;80;21551;-77
2022/09/14 05:55:41;;;;;;;3.35;3.10;;;;;;;10.78;98.84;98659.02;1777385;80;21601;-76
2022/09/14 05:58:09;;;;;;;4.60;3.30;;;;;;;10.81;98.68;98655.40;1777309;80;21475;-76
2022/09/14 06:00:38;;;;;;;3.85;3.37;;;;;;;10.84;98.73;98657.01;1777544;80;21015;-76
2022/09/14 06:03:06;;;;;;;3.75;2.95;;;;;;;10.87;98.68;98656.39;1777070;80;21507;-77
2022/09/14 06:05:34;;;;;;;3.30;3.10;;;;;;;10.93;98.84;98653.94;1777476;80;21078;-77
2022/09/14 06:08:02;;;;;;;3.67;3.37;;;;;;;10.97;98.90;98647.58;1777359;80;21024;-77
2022/09/14 06:10:28;;;;;;;3.45;3.25;;;;;;;11.03;99.17;98652.55;1777045;80;21113;-77
2022/09/14 06:12:55;;;;;;;3.60;3.30;;;;;;;11.09;98.60;98650.90;1777023;80;21150;-77
2022/09/14 06:15:23;;;;;;;3.65;3.12;;;;;;;11.12;98.18;98647.27;1777017;80;20985;-77
2022/09/14 06:17:49;;;;;;;3.77;2.98;;;;;;;11.13;98.33;98643.25;1777636;80;21123;-78
2022/09/14 06:20:17;;;;;;;3.60;3.27;;;;;;;11.18;98.30;98653.99;1777400;80;21083;-77
2022/09/14 06:22:44;;;;;;;3.90;3.10;;;;;;;11.22;98.16;98638.45;1777330;80;21511;-78
2022/09/14 06:25:11;;;;;;;3.50;3.20;;;;;;;11.28;98.17;98651.28;1777325;80;21756;-76
2022/09/14 06:27:37;;;;;;;3.67;3.20;;;;;;;11.31;97.77;98644.54;1777195;80;21008;-77
2022/09/14 06:30:05;;;;;;;6.45;3.95;;;;;;;11.33;97.24;98646.63;1777012;80;21049;-77
2022/09/14 06:32:32;;;;;;;3.25;3.05;;;;;;;11.34;97.29;98643.06;1777100;80;21095;-78
2022/09/14 06:34:58;;;;;;;3.67;3.30;;;;;;;11.38;97.18;98649.90;1777217;80;21134;-76
2022/09/14 06:37:25;;;;;;;3.80;3.50;;;;;;;11.42;97.12;98646.16;1776763;80;21537;-77
2022/09/14 06:39:52;;;;;;;3.98;3.60;;;;;;;11.47;96.67;98646.77;1777032;80;21062;-76
2022/09/14 06:42:18;;;;;;;5.33;3.30;;;;;;;11.49;96.23;98637.00;1777120;80;21008;-77
2022/09/14 06:44:47;;;;;;;4.35;3.70;;;;;;;11.53;96.16;98637.23;1776809;80;21086;-78
2022/09/14 06:47:14;;;;;;;3.72;3.42;;;;;;;11.61;95.78;98639.92;1776948;80;21598;-77
2022/09/14 06:49:40;;;;;;;3.87;3.58;;;;;;;11.64;94.91;98637.13;1777573;80;21491;-77
2022/09/14 06:52:07;;;;;;;4.67;3.45;;;;;;;11.67;95.30;98634.34;1777156;80;21537;-77
2022/09/14 06:54:33;;;;;;;3.25;3.02;;;;;;;11.73;94.95;98636.63;1777065;80;21506;-78
2022/09/14 06:57:00;;;;;;;2.98;2.77;;;;;;;11.77;93.93;98632.91;1777239;80;21452;-77
2022/09/14 06:59:27;;;;;;;4.70;2.87;;;;;;;11.81;92.47;98636.23;1777105;80;21046;-77
2022/09/14 07:01:53;;;;;;;2.92;2.70;;;;;;;11.80;91.97;98628.80;1777392;80;21688;-77
2022/09/14 07:04:20;;;;;;;3.37;3.12;;;;;;;11.87;92.73;98633.27;1777048;80;21032;-77
2022/09/14 07:06:48;;;;;;;3.83;2.90;;;;;;;11.95;92.55;98624.97;1776838;80;21047;-77
2022/09/14 07:09:16;;;;;;;5.83;2.85;;;;;;;12.05;91.64;98628.80;1777395;80;21027;-77
2022/09/14 07:11:43;;;;;;;6.75;3.10;;;;;;;12.16;92.80;98621.16;1777092;80;21044;-76
2022/09/14 07:14:10;;;;;;;5.75;2.60;;;;;;;12.32;92.54;98621.13;1776834;80;21134;-77
2022/09/14 07:16:38;;;;;;;3.02;2.58;;;;;;;12.48;90.44;98625.09;1777156;80;21043;-77
2022/09/14 07:19:10;;;;;;;2.75;2.55;;;;;;;12.59;87.59;98616.55;1777211;80;21043;-77
2022/09/14 07:21:37;;;;;;;2.98;2.40;;;;;;;12.63;87.30;98609.70;1777430;80;21016;-78
2022/09/14 07:24:05;;;;;;;2.50;2.30;;;;;;;12.75;87.06;98613.41;1777389;80;21086;-77
2022/09/14 07:26:38;;;;;;;2.72;2.52;;;;;;;12.84;85.16;98613.34;1777215;80;21113;-78
2022/09/14 07:29:06;;;;;;;2.70;2.40;;;;;;;12.91;84.79;98613.39;1777206;80;21472;-77
2022/09/14 07:31:36;;;;;;;2.92;2.60;;;;;;;12.96;85.02;98603.85;1777182;80;21106;-77
2022/09/14 07:34:03;;;;;;;2.52;2.25;;;;;;;13.06;85.46;98608.97;1777182;80;21063;-78
2022/09/14 07:36:33;;;;;;;3.70;2.58;;;;;;;13.20;84.91;98610.81;1777098;80;21078;-77
2022/09/14 07:39:00;;;;;;;2.30;2.10;;;;;;;13.32;84.05;98602.17;1777228;80;21252;-78
2022/09/14 07:41:28;;;;;;;2.33;2.15;;;;;;;13.45;83.31;98608.02;1777286;80;21024;-76
2022/09/14 07:43:56;;;;;;;2.02;1.90;;;;;;;13.49;80.38;98607.74;1779703;80;21127;-76
2022/09/14 07:46:22;;;;;;;2.40;2.02;;;;;;;13.54;80.71;98604.83;1780080;80;21484;-77
2022/09/14 07:48:56;;;;;;;5.47;1.95;;;;;;;13.60;80.41;98605.78;1780330;80;21495;-78
2022/09/14 07:51:23;;;;;;;2.27;1.72;;;;;;;13.71;80.17;98605.95;1779762;80;21145;-75
2022/09/14 07:53:50;;;;;;;2.00;1.80;;;;;;;13.88;79.73;98604.05;1780290;80;21835;-77
2022/09/14 07:56:16;;;;;;;1.90;1.80;;;;;;;13.99;75.91;98602.91;1780401;80;21542;-77
2022/09/14 07:58:43;;;;;;;1.70;1.60;;;;;;;14.06;75.09;98594.95;1780184;80;21814;-77
2022/09/14 08:01:20;;;;;;;2.80;1.47;;;;;;;14.11;74.46;98590.22;1780633;80;20972;-77
2022/09/14 08:03:44;;;;;;;6.30;1.75;;;;;;;14.21;74.31;98589.64;1779080;80;20976;-75
2022/09/14 08:06:16;;;;;;;1.60;1.50;;;;;;;14.30;72.48;98573.16;1780498;80;21197;-77
2022/09/14 08:08:46;;;;;;;1.70;1.60;;;;;;;14.34;72.18;98581.28;1779658;80;21039;-78
2022/09/14 08:11:28;;;;;;;1.82;1.25;;;;;;;14.36;71.38;98578.55;1780349;80;20984;-77
2022/09/14 08:14:03;;;;;;;5.75;1.40;;;;;;;14.42;71.59;98579.44;1780300;80;21067;-77
2022/09/14 08:16:30;;;;;;;1.55;1.17;;;;;;;14.57;71.77;98582.88;1780559;80;21550;-77
2022/09/14 08:19:00;;;;;;;1.62;1.50;;;;;;;14.75;70.94;98580.86;1780126;80;21124;-77
2022/09/14 08:21:28;;;;;;;1.80;1.70;;;;;;;14.91;71.47;98581.98;1780695;80;22202;-75
2022/09/14 08:23:56;;;;;;;1.70;1.60;;;;;;;15.03;71.08;98571.91;1780101;80;21066;-77
2022/09/14 08:26:25;;;;;;;1.37;1.22;;;;;;;15.13;68.59;98583.57;1780459;80;21043;-76
2022/09/14 08:28:51;;;;;;;2.08;1.30;;;;;;;15.17;65.84;98571.80;1780217;80;21120;-77
2022/09/14 08:31:24;;;;;;;3.12;1.60;;;;;;;15.21;66.25;98566.67;1779990;80;21922;-78
2022/09/14 08:33:57;;;;;;;2.27;1.40;;;;;;;15.26;66.61;98564.16;1780432;80;21035;-77
2022/09/14 08:36:25;;;;;;;4.05;1.57;;;;;;;15.34;65.66;98553.89;1780441;80;21044;-76
2022/09/14 08:38:51;;;;;;;2.58;1.70;;;;;;;15.34;66.54;98564.48;1780448;80;21066;-77
2022/09/14 08:41:46;;;;;;;3.62;1.82;;;;;;;15.33;66.79;98570.73;1780479;80;21198;-77
2022/09/14 08:44:18;;;;;;;1.87;1.67;;;;;;;15.29;67.16;98562.15;1780503;80;21039;-77
2022/09/14 08:46:58;;;;;;;1.82;1.70;;;;;;;15.31;68.37;98564.70;1780267;80;21480;-77
2022/09/14 08:50:03;;;;;;;1.42;1.30;;;;;;;15.32;67.36;98567.24;1780228;80;21063;-77
2022/09/14 08:52:45;;;;;;;1.72;1.22;;;;;;;15.28;65.88;98562.25;1780449;80;21052;-76
2022/09/14 08:55:36;;;;;;;2.05;1.20;;;;;;;15.16;65.67;98564.81;1778492;80;21906;-76
2022/09/14 08:58:43;;;;;;;1.92;1.20;;;;;;;15.08;64.62;98561.84;1780262;80;20964;-77
2022/09/14 09:01:47;;;;;;;2.17;1.50;;;;;;;14.97;65.29;98556.42;1780218;80;21137;-77
2022/09/14 09:04:43;;;;;;;2.15;1.22;;;;;;;14.91;65.62;98558.15;1780146;80;21122;-76
2022/09/14 09:07:38;;;;;;;3.40;1.45;;;;;;;14.88;65.24;98549.08;1779775;80;20968;-77
2022/09/14 09:10:05;;;;;;;1.60;1.50;;;;;;;14.85;66.72;98545.70;1752331;80;21124;-77
2022/09/14 09:12:41;;;;;;;1.62;1.20;;;;;;;14.86;67.65;98550.05;1780389;80;21110;-77
2022/09/14 09:15:30;;;;;;;2.60;1.50;;;;;;;14.82;67.68;98552.52;1780831;80;21024;-77
2022/09/14 09:18:45;;;;;;;1.67;1.37;;;;;;;14.74;68.50;98549.53;1780354;80;21047;-77
2022/09/14 09:21:16;;;;;;;3.08;1.55;;;;;;;14.72;68.53;98554.58;1780229;80;21929;-77
2022/09/14 09:23:43;;;;;;;1.80;1.70;;;;;;;14.67;69.08;98552.23;1779631;80;21088;-76
2022/09/14 09:26:31;;;;;;;3.50;1.50;;;;;;;14.62;70.34;98554.34;1780200;80;21090;-76
2022/09/14 09:29:00;;;;;;;4.37;2.15;;;;;;;14.59;68.88;98557.19;1753674;80;21015;-77
2022/09/14 09:31:36;;;;;;;2.55;1.80;;;;;;;14.55;68.58;98559.16;1780168;80;21125;-77
2022/09/14 09:34:13;;;;;;;4.50;1.90;;;;;;;14.48;68.74;98557.39;1777153;80;20972;-77
2022/09/14 09:36:47;;;;;;;2.20;1.70;;;;;;;14.44;69.57;98565.17;1780169;80;21203;-78
2022/09/14 09:39:14;;;;;;;6.42;1.75;;;;;;;14.40;69.43;98566.31;1780215;80;21083;-76
2022/09/14 09:41:52;;;;;;;2.10;1.90;;;;;;;14.35;70.12;98559.14;1753076;80;21122;-76
2022/09/14 09:44:18;;;;;;;2.12;1.92;;;;;;;14.33;70.34;98561.53;1779906;80;21050;-77
2022/09/14 09:46:54;;;;;;;4.00;1.70;;;;;;;14.31;70.28;98562.95;1780100;80;21447;-77
2022/09/14 09:49:35;;;;;;;6.42;1.98;;;;;;;14.28;70.06;98561.83;1779971;80;22202;-77
2022/09/14 09:52:15;;;;;;;3.65;1.80;;;;;;;14.24;70.47;98560.31;1780148;80;21554;-77
2022/09/14 09:54:48;;;;;;;2.08;1.95;;;;;;;14.22;70.86;98557.80;1780479;80;21074;-78
2022/09/14 09:57:31;;;;;;;2.45;1.77;;;;;;;14.22;71.44;98554.28;1780164;80;21103;-77
2022/09/14 10:00:23;;;;;;;5.25;2.27;;;;;;;14.26;72.01;98555.80;1779844;80;21106;-77
2022/09/14 10:02:50;;;;;;;4.95;2.65;;;;;;;14.26;71.23;98554.47;1780384;80;21144;-77
2022/09/14 10:05:24;;;;;;;3.50;2.50;;;;;;;14.24;71.63;98549.28;1780078;80;21003;-77
2022/09/14 10:08:02;;;;;;;3.80;2.75;;;;;;;14.26;71.96;98550.50;1779925;80;20992;-76
2022/09/14 10:10:41;;;;;;;3.87;2.80;;;;;;;14.29;72.41;98550.31;1780037;80;21024;-78
2022/09/14 10:13:21;;;;;;;3.45;2.80;;;;;;;14.30;72.13;98548.02;1780482;80;20968;-77
2022/09/14 10:15:48;;;;;;;5.45;2.35;;;;;;;14.30;72.33;98549.34;1780119;80;21234;-77
2022/09/14 10:18:17;;;;;;;2.77;2.30;;;;;;;14.30;72.33;98553.31;1780139;80;21127;-77
2022/09/14 10:21:07;;;;;;;3.45;2.12;;;;;;;14.31;72.71;98549.73;1780628;80;21937;-76
2022/09/14 10:23:38;;;;;;;2.00;1.85;;;;;;;14.31;72.69;98551.05;1780042;80;21126;-75
2022/09/14 10:26:17;;;;;;;3.27;1.90;;;;;;;14.32;72.96;98544.79;1780484;80;21059;-77
2022/09/14 10:28:47;;;;;;;5.87;2.30;;;;;;;14.37;73.18;98544.50;1780010;80;22149;-77
2022/09/14 10:31:29;;;;;;;2.70;2.22;;;;;;;14.40;73.23;98546.95;1779881;80;20984;-77
2022/09/14 10:33:56;;;;;;;2.55;2.35;;;;;;;14.43;73.39;98552.88;1780052;80;21112;-78
2022/09/14 10:36:30;;;;;;;3.83;2.40;;;;;;;14.45;72.43;98544.36;1729726;80;21521;-78
2022/09/14 10:39:28;;;;;;;2.98;2.20;;;;;;;14.43;72.73;98544.10;1780120;80;21102;-78
2022/09/14 10:42:18;;;;;;;4.78;2.67;;;;;;;14.44;73.21;98538.71;1780302;80;21173;-78
2022/09/14 10:45:32;;;;;;;5.25;3.70;;;;;;;14.45;73.00;98545.68;1773902;80;21471;-77
2022/09/14 10:48:27;;;;;;;14.03;7.17;;;;;;;14.48;73.53;98544.16;1780767;80;21035;-78
2022/09/14 10:51:03;;;;;;;;;;;;;;;14.53;73.36;98545.67;1783228;80;21218;-77
2022/09/14 10:53:43;;;;;;;5.90;3.58;;;;;;;14.56;73.16;98544.12;1781449;80;20975;-77
2022/09/14 10:56:27;;;;;;;3.55;3.25;;;;;;;14.60;73.90;98537.72;1780977;80;21183;-77
2022/09/14 10:59:12;;;;;;;4.45;3.05;;;;;;;14.66;74.01;98538.16;1757381;80;21004;-78
2022/09/14 11:02:15;;;;;;;3.83;2.77;;;;;;;14.71;74.64;98543.15;1781029;80;21040;-78
2022/09/14 11:05:04;;;;;;;4.78;3.08;;;;;;;14.76;75.63;98533.09;1780853;80;21593;-77
2022/09/14 11:07:59;;;;;;;6.60;3.62;;;;;;;14.79;76.28;98534.22;1780059;80;21406;-77
2022/09/14 11:10:39;;;;;;;4.90;3.45;;;;;;;14.80;76.20;98534.57;1780284;80;21632;-78
2022/09/14 11:13:23;;;;;;;6.00;3.67;;;;;;;14.81;77.99;98527.02;1780676;80;21055;-77
2022/09/14 11:16:10;;;;;;;5.08;3.87;;;;;;;14.81;78.84;98527.02;1781393;80;21003;-77
2022/09/14 11:19:01;;;;;;;6.83;4.10;;;;;;;14.84;79.46;98527.27;1779603;80;20968;-76
2022/09/14 11:21:49;;;;;;;5.40;3.67;;;;;;;14.86;80.48;98524.89;1781069;80;21063;-78
2022/09/14 11:24:24;;;;;;;6.12;3.90;;;;;;;14.90;79.85;98518.91;1780730;80;21157;-78
2022/09/14 11:27:16;;;;;;;7.05;4.37;;;;;;;14.90;80.60;98520.72;1781027;80;21000;-77
2022/09/14 11:30:12;;;;;;;4.67;4.20;;;;;;;14.86;81.34;98524.89;1780693;80;22121;-77
2022/09/14 11:32:45;;;;;;;12.50;8.10;;;;;;;14.85;82.49;98520.54;1780680;80;21156;-77
2022/09/14 11:35:24;;;;;;;29.25;20.25;;;;;;;14.85;83.21;98515.73;1780769;80;21071;-77
2022/09/14 11:38:20;;;;;;;8.55;6.17;;;;;;;14.79;83.48;98517.00;1781220;80;21082;-78
2022/09/14 11:40:55;;;;;;;7.60;4.83;;;;;;;14.74;84.44;98513.79;1780279;80;21079;-77
2022/09/14 11:43:48;;;;;;;5.65;4.85;;;;;;;14.72;85.53;98514.86;1780785;80;21019;-78
2022/09/14 11:46:27;;;;;;;5.20;4.00;;;;;;;14.74;85.79;98513.79;1777190;80;21522;-77
2022/09/14 11:49:20;;;;;;;5.78;4.15;;;;;;;14.75;86.22;98515.50;1777177;80;21172;-78
2022/09/14 11:52:13;;;;;;;5.78;4.10;;;;;;;14.69;86.43;98511.94;1777204;80;21228;-77
2022/09/14 11:54:39;;;;;;;4.17;3.87;;;;;;;14.63;88.06;98504.42;1777024;80;21071;-78
2022/09/14 11:57:06;;;;;;;4.50;4.10;;;;;;;14.62;89.11;98510.66;1777254;80;21015;-78
2022/09/14 11:59:47;;;;;;;8.00;4.10;;;;;;;14.59;89.20;98511.73;1777205;80;21059;-77